sensor_id;sensor_type;location;lat;lon;timestamp;pressure;altitude;pressure_sealevel;temperature;humidity
76553;BME280;65395;53.168;18.156;2023-07-20T00:01:51;100349.59;;;13.51;77.64
76553;BME280;65395;53.168;18.156;2023-07-20T00:04:18;100353.98;;;13.51;77.74
76553;BME280;65395;53.168;18.156;2023-07-20T00:06:45;100361.07;;;13.53;77.84
76553;BME280;65395;53.168;18.156;2023-07-20T00:09:12;100361.77;;;13.55;77.92
76553;BME280;65395;53.168;18.156;2023-07-20T00:11:39;100359.64;;;13.55;78.24
76553;BME280;65395;53.168;18.156;2023-07-20T00:14:06;100356.60;;;13.54;78.03
76553;BME280;65395;53.168;18.156;2023-07-20T00:16:33;100357.50;;;13.54;78.15
76553;BME280;65395;53.168;18.156;2023-07-20T00:19:00;100356.78;;;13.53;78.28
76553;BME280;65395;53.168;18.156;2023-07-20T00:21:26;100359.17;;;13.54;78.38
76553;BME280;65395;53.168;18.156;2023-07-20T00:23:53;100361.45;;;13.58;78.55
76553;BME280;65395;53.168;18.156;2023-07-20T00:26:20;100364.50;;;13.62;78.60
76553;BME280;65395;53.168;18.156;2023-07-20T00:28:49;100366.54;;;13.65;78.81
76553;BME280;65395;53.168;18.156;2023-07-20T00:31:19;100370.37;;;13.68;78.55
76553;BME280;65395;53.168;18.156;2023-07-20T00:33:46;100368.84;;;13.71;78.60
76553;BME280;65395;53.168;18.156;2023-07-20T00:36:14;100369.30;;;13.75;78.76
76553;BME280;65395;53.168;18.156;2023-07-20T00:38:42;100374.07;;;13.78;78.83
76553;BME280;65395;53.168;18.156;2023-07-20T00:41:09;100381.67;;;13.81;78.79
76553;BME280;65395;53.168;18.156;2023-07-20T00:43:36;100382.12;;;13.84;79.05
76553;BME280;65395;53.168;18.156;2023-07-20T00:46:03;100386.23;;;13.88;78.94
76553;BME280;65395;53.168;18.156;2023-07-20T00:48:31;100378.42;;;13.93;79.09
76553;BME280;65395;53.168;18.156;2023-07-20T00:50:59;100373.76;;;13.97;79.15
76553;BME280;65395;53.168;18.156;2023-07-20T00:53:26;100368.57;;;14.01;79.33
76553;BME280;65395;53.168;18.156;2023-07-20T00:55:54;100366.81;;;14.08;79.47
76553;BME280;65395;53.168;18.156;2023-07-20T00:58:21;100368.87;;;14.15;80.09
76553;BME280;65395;53.168;18.156;2023-07-20T01:00:48;100368.91;;;14.20;80.67
76553;BME280;65395;53.168;18.156;2023-07-20T01:03:15;100369.16;;;14.22;80.70
76553;BME280;65395;53.168;18.156;2023-07-20T01:08:40;100367.91;;;14.26;80.64
76553;BME280;65395;53.168;18.156;2023-07-20T01:11:23;100360.44;;;14.30;80.29
76553;BME280;65395;53.168;18.156;2023-07-20T01:13:55;100368.63;;;14.31;80.06
76553;BME280;65395;53.168;18.156;2023-07-20T01:16:21;100370.73;;;14.30;79.99
76553;BME280;65395;53.168;18.156;2023-07-20T01:18:48;100373.81;;;14.30;80.02
76553;BME280;65395;53.168;18.156;2023-07-20T01:21:22;100370.13;;;14.32;80.32
76553;BME280;65395;53.168;18.156;2023-07-20T01:27:00;100374.35;;;14.39;80.05
76553;BME280;65395;53.168;18.156;2023-07-20T01:32:16;100371.13;;;14.43;80.21
76553;BME280;65395;53.168;18.156;2023-07-20T01:34:44;100372.16;;;14.44;80.05
76553;BME280;65395;53.168;18.156;2023-07-20T01:37:12;100377.55;;;14.46;80.04
76553;BME280;65395;53.168;18.156;2023-07-20T01:39:39;100377.25;;;14.48;80.12
76553;BME280;65395;53.168;18.156;2023-07-20T01:42:07;100376.75;;;14.51;80.09
76553;BME280;65395;53.168;18.156;2023-07-20T01:44:33;100375.15;;;14.53;80.15
76553;BME280;65395;53.168;18.156;2023-07-20T01:47:00;100371.39;;;14.54;80.03
76553;BME280;65395;53.168;18.156;2023-07-20T01:49:27;100371.00;;;14.55;80.16
76553;BME280;65395;53.168;18.156;2023-07-20T01:51:55;100372.42;;;14.59;80.64
76553;BME280;65395;53.168;18.156;2023-07-20T01:54:21;100375.02;;;14.63;80.85
76553;BME280;65395;53.168;18.156;2023-07-20T01:56:48;100376.95;;;14.66;80.96
76553;BME280;65395;53.168;18.156;2023-07-20T01:59:15;100379.00;;;14.68;80.95
76553;BME280;65395;53.168;18.156;2023-07-20T02:01:41;100377.31;;;14.69;80.81
76553;BME280;65395;53.168;18.156;2023-07-20T02:04:08;100381.25;;;14.70;80.78
76553;BME280;65395;53.168;18.156;2023-07-20T02:06:34;100379.84;;;14.71;80.60
76553;BME280;65395;53.168;18.156;2023-07-20T02:09:01;100390.45;;;14.73;80.55
76553;BME280;65395;53.168;18.156;2023-07-20T02:11:31;100390.45;;;14.73;80.48
76553;BME280;65395;53.168;18.156;2023-07-20T02:13:58;100392.02;;;14.75;80.65
76553;BME280;65395;53.168;18.156;2023-07-20T02:16:25;100392.80;;;14.77;80.55
76553;BME280;65395;53.168;18.156;2023-07-20T02:18:52;100391.16;;;14.78;80.68
76553;BME280;65395;53.168;18.156;2023-07-20T02:21:19;100393.15;;;14.80;80.65
76553;BME280;65395;53.168;18.156;2023-07-20T02:23:46;100394.18;;;14.81;80.63
76553;BME280;65395;53.168;18.156;2023-07-20T02:26:12;100396.34;;;14.82;80.75
76553;BME280;65395;53.168;18.156;2023-07-20T02:28:39;100394.73;;;14.83;80.76
76553;BME280;65395;53.168;18.156;2023-07-20T02:31:07;100393.77;;;14.85;80.81
76553;BME280;65395;53.168;18.156;2023-07-20T02:33:34;100393.87;;;14.88;80.72
76553;BME280;65395;53.168;18.156;2023-07-20T02:36:00;100389.64;;;14.93;80.71
76553;BME280;65395;53.168;18.156;2023-07-20T02:38:27;100394.04;;;14.97;80.88
76553;BME280;65395;53.168;18.156;2023-07-20T02:40:54;100391.81;;;15.00;81.02
76553;BME280;65395;53.168;18.156;2023-07-20T02:43:21;100388.14;;;15.03;80.90
76553;BME280;65395;53.168;18.156;2023-07-20T02:45:48;100383.60;;;15.07;80.82
76553;BME280;65395;53.168;18.156;2023-07-20T02:48:14;100378.90;;;15.10;80.72
76553;BME280;65395;53.168;18.156;2023-07-20T02:50:43;100372.40;;;15.15;80.44
76553;BME280;65395;53.168;18.156;2023-07-20T02:53:10;100371.08;;;15.18;80.07
76553;BME280;65395;53.168;18.156;2023-07-20T02:55:37;100369.92;;;15.20;79.58
76553;BME280;65395;53.168;18.156;2023-07-20T02:58:04;100370.84;;;15.20;79.23
76553;BME280;65395;53.168;18.156;2023-07-20T03:00:30;100374.30;;;15.21;79.00
76553;BME280;65395;53.168;18.156;2023-07-20T03:02:57;100376.35;;;15.23;78.71
76553;BME280;65395;53.168;18.156;2023-07-20T03:05:24;100379.36;;;15.25;78.70
76553;BME280;65395;53.168;18.156;2023-07-20T03:07:52;100385.42;;;15.26;78.47
76553;BME280;65395;53.168;18.156;2023-07-20T03:10:18;100388.26;;;15.25;78.52
76553;BME280;65395;53.168;18.156;2023-07-20T03:12:45;100385.60;;;15.23;78.55
76553;BME280;65395;53.168;18.156;2023-07-20T03:15:12;100386.30;;;15.21;78.47
76553;BME280;65395;53.168;18.156;2023-07-20T03:17:39;100385.61;;;15.21;78.69
76553;BME280;65395;53.168;18.156;2023-07-20T03:20:07;100383.83;;;15.20;78.81
76553;BME280;65395;53.168;18.156;2023-07-20T03:22:36;100383.88;;;15.20;78.90
76553;BME280;65395;53.168;18.156;2023-07-20T03:25:03;100386.98;;;15.20;78.83
76553;BME280;65395;53.168;18.156;2023-07-20T03:27:31;100384.85;;;15.21;78.84
76553;BME280;65395;53.168;18.156;2023-07-20T03:29:58;100389.11;;;15.21;78.87
76553;BME280;65395;53.168;18.156;2023-07-20T03:32:25;100392.79;;;15.22;78.94
76553;BME280;65395;53.168;18.156;2023-07-20T03:34:52;100392.41;;;15.23;78.81
76553;BME280;65395;53.168;18.156;2023-07-20T03:37:19;100393.36;;;15.26;78.63
76553;BME280;65395;53.168;18.156;2023-07-20T03:39:45;100393.25;;;15.29;78.21
76553;BME280;65395;53.168;18.156;2023-07-20T03:42:12;100395.21;;;15.30;77.91
76553;BME280;65395;53.168;18.156;2023-07-20T03:44:39;100393.99;;;15.33;77.71
76553;BME280;65395;53.168;18.156;2023-07-20T03:47:08;100390.74;;;15.35;77.67
76553;BME280;65395;53.168;18.156;2023-07-20T03:49:35;100386.58;;;15.37;77.38
76553;BME280;65395;53.168;18.156;2023-07-20T03:52:02;100384.22;;;15.39;77.24
76553;BME280;65395;53.168;18.156;2023-07-20T03:54:31;100390.48;;;15.40;77.13
76553;BME280;65395;53.168;18.156;2023-07-20T03:56:57;100393.64;;;15.41;77.16
76553;BME280;65395;53.168;18.156;2023-07-20T03:59:24;100394.28;;;15.42;77.28
76553;BME280;65395;53.168;18.156;2023-07-20T04:01:51;100392.91;;;15.42;77.25
76553;BME280;65395;53.168;18.156;2023-07-20T04:04:19;100394.88;;;15.42;77.24
76553;BME280;65395;53.168;18.156;2023-07-20T04:06:45;100394.97;;;15.42;77.14
76553;BME280;65395;53.168;18.156;2023-07-20T04:09:13;100389.34;;;15.45;77.05
76553;BME280;65395;53.168;18.156;2023-07-20T04:11:40;100395.04;;;15.47;76.82
76553;BME280;65395;53.168;18.156;2023-07-20T04:14:07;100398.18;;;15.50;76.91
76553;BME280;65395;53.168;18.156;2023-07-20T04:16:33;100394.12;;;15.53;76.89
76553;BME280;65395;53.168;18.156;2023-07-20T04:19:00;100395.25;;;15.57;76.55
76553;BME280;65395;53.168;18.156;2023-07-20T04:21:27;100398.77;;;15.62;76.56
76553;BME280;65395;53.168;18.156;2023-07-20T04:23:54;100398.52;;;15.70;76.50
76553;BME280;65395;53.168;18.156;2023-07-20T04:26:21;100399.81;;;15.77;76.37
76553;BME280;65395;53.168;18.156;2023-07-20T04:28:49;100397.98;;;15.83;75.95
76553;BME280;65395;53.168;18.156;2023-07-20T04:31:29;100398.57;;;15.87;75.62
76553;BME280;65395;53.168;18.156;2023-07-20T04:33:58;100403.82;;;15.92;75.47
76553;BME280;65395;53.168;18.156;2023-07-20T04:36:25;100405.20;;;15.94;75.39
76553;BME280;65395;53.168;18.156;2023-07-20T04:38:53;100400.52;;;15.99;75.37
76553;BME280;65395;53.168;18.156;2023-07-20T04:41:21;100396.52;;;16.04;75.20
76553;BME280;65395;53.168;18.156;2023-07-20T04:43:49;100393.08;;;16.11;75.13
76553;BME280;65395;53.168;18.156;2023-07-20T04:46:22;100392.46;;;16.19;74.97
76553;BME280;65395;53.168;18.156;2023-07-20T04:48:50;100397.44;;;16.31;74.69
76553;BME280;65395;53.168;18.156;2023-07-20T04:51:17;100400.91;;;16.40;74.47
76553;BME280;65395;53.168;18.156;2023-07-20T04:53:48;100399.87;;;16.44;74.36
76553;BME280;65395;53.168;18.156;2023-07-20T04:56:15;100397.73;;;16.49;74.06
76553;BME280;65395;53.168;18.156;2023-07-20T04:58:42;100396.08;;;16.53;73.88
76553;BME280;65395;53.168;18.156;2023-07-20T05:01:09;100399.03;;;16.57;73.66
76553;BME280;65395;53.168;18.156;2023-07-20T05:03:36;100399.02;;;16.61;73.63
76553;BME280;65395;53.168;18.156;2023-07-20T05:06:03;100399.35;;;16.67;73.28
76553;BME280;65395;53.168;18.156;2023-07-20T05:08:30;100396.30;;;16.71;73.20
76553;BME280;65395;53.168;18.156;2023-07-20T05:10:56;100394.20;;;16.74;72.99
76553;BME280;65395;53.168;18.156;2023-07-20T05:13:23;100398.62;;;16.80;72.78
76553;BME280;65395;53.168;18.156;2023-07-20T05:15:52;100397.80;;;16.85;72.41
76553;BME280;65395;53.168;18.156;2023-07-20T05:18:20;100402.73;;;16.89;71.91
76553;BME280;65395;53.168;18.156;2023-07-20T05:20:48;100400.45;;;16.91;71.70
76553;BME280;65395;53.168;18.156;2023-07-20T05:23:19;100402.11;;;16.98;71.57
76553;BME280;65395;53.168;18.156;2023-07-20T05:25:47;100405.38;;;17.06;71.33
76553;BME280;65395;53.168;18.156;2023-07-20T05:28:13;100405.73;;;17.14;70.96
76553;BME280;65395;53.168;18.156;2023-07-20T05:30:40;100406.81;;;17.20;70.79
76553;BME280;65395;53.168;18.156;2023-07-20T05:33:07;100410.96;;;17.26;70.57
76553;BME280;65395;53.168;18.156;2023-07-20T05:35:36;100414.27;;;17.32;70.17
76553;BME280;65395;53.168;18.156;2023-07-20T05:38:03;100415.14;;;17.39;69.92
76553;BME280;65395;53.168;18.156;2023-07-20T05:40:31;100411.71;;;17.46;69.75
76553;BME280;65395;53.168;18.156;2023-07-20T05:42:57;100413.75;;;17.55;69.63
76553;BME280;65395;53.168;18.156;2023-07-20T05:45:25;100411.57;;;17.67;69.40
76553;BME280;65395;53.168;18.156;2023-07-20T05:47:52;100409.60;;;17.75;69.04
76553;BME280;65395;53.168;18.156;2023-07-20T05:50:18;100412.31;;;17.82;68.44
76553;BME280;65395;53.168;18.156;2023-07-20T05:52:45;100412.27;;;17.89;68.77
76553;BME280;65395;53.168;18.156;2023-07-20T05:55:11;100407.81;;;17.98;68.36
76553;BME280;65395;53.168;18.156;2023-07-20T05:57:38;100405.66;;;18.03;68.05
76553;BME280;65395;53.168;18.156;2023-07-20T06:00:08;100403.10;;;17.98;67.76
76553;BME280;65395;53.168;18.156;2023-07-20T06:02:39;100403.67;;;17.92;67.99
76553;BME280;65395;53.168;18.156;2023-07-20T06:05:06;100406.66;;;17.92;67.99
76553;BME280;65395;53.168;18.156;2023-07-20T06:07:37;100405.82;;;17.98;67.72
76553;BME280;65395;53.168;18.156;2023-07-20T06:10:05;100406.84;;;18.07;67.47
76553;BME280;65395;53.168;18.156;2023-07-20T06:12:32;100408.33;;;18.17;67.30
76553;BME280;65395;53.168;18.156;2023-07-20T06:15:04;100409.84;;;18.22;66.74
76553;BME280;65395;53.168;18.156;2023-07-20T06:17:31;100410.78;;;18.26;66.48
76553;BME280;65395;53.168;18.156;2023-07-20T06:19:58;100411.80;;;18.33;66.59
76553;BME280;65395;53.168;18.156;2023-07-20T06:22:25;100415.61;;;18.44;66.17
76553;BME280;65395;53.168;18.156;2023-07-20T06:24:52;100414.62;;;18.55;65.80
76553;BME280;65395;53.168;18.156;2023-07-20T06:27:18;100414.14;;;18.69;65.56
76553;BME280;65395;53.168;18.156;2023-07-20T06:29:45;100413.48;;;18.80;64.97
76553;BME280;65395;53.168;18.156;2023-07-20T06:32:11;100415.19;;;18.88;64.48
76553;BME280;65395;53.168;18.156;2023-07-20T06:34:40;100415.23;;;18.92;64.40
76553;BME280;65395;53.168;18.156;2023-07-20T06:37:07;100416.58;;;18.88;64.13
76553;BME280;65395;53.168;18.156;2023-07-20T06:39:33;100413.13;;;18.81;64.33
76553;BME280;65395;53.168;18.156;2023-07-20T06:42:00;100414.64;;;18.80;63.89
76553;BME280;65395;53.168;18.156;2023-07-20T06:44:27;100416.36;;;18.83;64.04
76553;BME280;65395;53.168;18.156;2023-07-20T06:46:53;100416.27;;;18.94;63.71
76553;BME280;65395;53.168;18.156;2023-07-20T06:49:24;100419.48;;;19.02;63.09
76553;BME280;65395;53.168;18.156;2023-07-20T06:51:53;100420.79;;;19.05;62.88
76553;BME280;65395;53.168;18.156;2023-07-20T06:54:20;100420.42;;;19.02;62.99
76553;BME280;65395;53.168;18.156;2023-07-20T06:56:47;100419.45;;;19.03;62.66
76553;BME280;65395;53.168;18.156;2023-07-20T06:59:13;100418.04;;;19.02;62.71
76553;BME280;65395;53.168;18.156;2023-07-20T07:01:40;100416.79;;;19.03;62.82
76553;BME280;65395;53.168;18.156;2023-07-20T07:04:07;100418.00;;;19.07;62.58
76553;BME280;65395;53.168;18.156;2023-07-20T07:06:33;100418.18;;;19.08;62.16
76553;BME280;65395;53.168;18.156;2023-07-20T07:09:01;100412.84;;;19.11;61.91
76553;BME280;65395;53.168;18.156;2023-07-20T07:11:27;100416.69;;;19.20;62.20
76553;BME280;65395;53.168;18.156;2023-07-20T07:13:54;100418.89;;;19.35;61.99
76553;BME280;65395;53.168;18.156;2023-07-20T07:16:21;100420.83;;;19.54;62.15
76553;BME280;65395;53.168;18.156;2023-07-20T07:18:49;100424.71;;;19.71;61.76
76553;BME280;65395;53.168;18.156;2023-07-20T07:21:16;100420.41;;;19.88;61.32
76553;BME280;65395;53.168;18.156;2023-07-20T07:23:45;100421.98;;;20.02;61.08
76553;BME280;65395;53.168;18.156;2023-07-20T07:26:12;100418.59;;;20.13;60.68
76553;BME280;65395;53.168;18.156;2023-07-20T07:28:39;100417.66;;;20.23;60.14
76553;BME280;65395;53.168;18.156;2023-07-20T07:31:07;100421.60;;;20.29;59.85
76553;BME280;65395;53.168;18.156;2023-07-20T07:33:33;100422.54;;;20.35;59.52
76553;BME280;65395;53.168;18.156;2023-07-20T07:36:01;100427.19;;;20.38;59.44
76553;BME280;65395;53.168;18.156;2023-07-20T07:38:28;100424.97;;;20.46;59.12
76553;BME280;65395;53.168;18.156;2023-07-20T07:40:55;100425.82;;;20.61;58.52
76553;BME280;65395;53.168;18.156;2023-07-20T07:43:22;100425.15;;;20.71;57.96
76553;BME280;65395;53.168;18.156;2023-07-20T07:45:49;100425.48;;;20.77;57.35
76553;BME280;65395;53.168;18.156;2023-07-20T07:48:16;100424.09;;;20.86;57.49
76553;BME280;65395;53.168;18.156;2023-07-20T07:50:43;100428.21;;;20.94;56.92
76553;BME280;65395;53.168;18.156;2023-07-20T07:53:10;100425.06;;;20.98;56.32
76553;BME280;65395;53.168;18.156;2023-07-20T07:55:37;100425.43;;;21.02;56.08
76553;BME280;65395;53.168;18.156;2023-07-20T07:58:04;100428.14;;;21.07;55.85
76553;BME280;65395;53.168;18.156;2023-07-20T08:00:30;100428.23;;;21.13;55.71
76553;BME280;65395;53.168;18.156;2023-07-20T08:02:58;100430.82;;;21.18;55.31
76553;BME280;65395;53.168;18.156;2023-07-20T08:05:25;100428.36;;;21.12;55.43
76553;BME280;65395;53.168;18.156;2023-07-20T08:07:52;100426.77;;;21.07;55.08
76553;BME280;65395;53.168;18.156;2023-07-20T08:10:19;100430.58;;;21.02;54.49
76553;BME280;65395;53.168;18.156;2023-07-20T08:12:46;100428.84;;;20.95;54.52
76553;BME280;65395;53.168;18.156;2023-07-20T08:15:13;100426.83;;;20.85;53.69
76553;BME280;65395;53.168;18.156;2023-07-20T08:17:41;100429.95;;;20.70;53.41
76553;BME280;65395;53.168;18.156;2023-07-20T08:20:09;100429.98;;;20.58;53.66
76553;BME280;65395;53.168;18.156;2023-07-20T08:22:39;100431.90;;;20.45;54.03
76553;BME280;65395;53.168;18.156;2023-07-20T08:25:06;100432.23;;;20.34;53.99
76553;BME280;65395;53.168;18.156;2023-07-20T08:27:33;100433.08;;;20.26;53.66
76553;BME280;65395;53.168;18.156;2023-07-20T08:29:59;100428.58;;;20.15;53.15
76553;BME280;65395;53.168;18.156;2023-07-20T08:32:27;100421.10;;;20.16;53.21
76553;BME280;65395;53.168;18.156;2023-07-20T08:34:53;100418.06;;;20.20;51.15
76553;BME280;65395;53.168;18.156;2023-07-20T08:37:20;100420.58;;;20.31;52.25
76553;BME280;65395;53.168;18.156;2023-07-20T08:39:47;100412.11;;;20.55;51.79
76553;BME280;65395;53.168;18.156;2023-07-20T08:42:14;100410.16;;;20.76;51.64
76553;BME280;65395;53.168;18.156;2023-07-20T08:44:42;100419.48;;;20.89;51.32
76553;BME280;65395;53.168;18.156;2023-07-20T08:47:10;100425.23;;;20.89;50.55
76553;BME280;65395;53.168;18.156;2023-07-20T08:49:39;100423.96;;;20.78;50.36
76553;BME280;65395;53.168;18.156;2023-07-20T08:52:06;100423.30;;;20.66;50.70
76553;BME280;65395;53.168;18.156;2023-07-20T08:54:34;100425.73;;;20.56;50.98
76553;BME280;65395;53.168;18.156;2023-07-20T08:57:03;100423.80;;;20.41;51.67
76553;BME280;65395;53.168;18.156;2023-07-20T08:59:31;100425.10;;;20.37;52.09
76553;BME280;65395;53.168;18.156;2023-07-20T09:01:59;100418.66;;;20.40;52.06
76553;BME280;65395;53.168;18.156;2023-07-20T09:04:26;100410.04;;;20.50;52.07
76553;BME280;65395;53.168;18.156;2023-07-20T09:06:53;100408.77;;;20.70;51.77
76553;BME280;65395;53.168;18.156;2023-07-20T09:09:20;100406.92;;;20.90;50.96
76553;BME280;65395;53.168;18.156;2023-07-20T09:11:49;100404.33;;;21.08;50.90
76553;BME280;65395;53.168;18.156;2023-07-20T09:14:16;100402.56;;;21.29;50.68
76553;BME280;65395;53.168;18.156;2023-07-20T09:16:53;100408.73;;;21.43;50.34
76553;BME280;65395;53.168;18.156;2023-07-20T09:19:21;100407.89;;;21.49;49.69
76553;BME280;65395;53.168;18.156;2023-07-20T09:21:49;100407.89;;;21.49;49.58
76553;BME280;65395;53.168;18.156;2023-07-20T09:24:18;100407.73;;;21.55;49.85
76553;BME280;65395;53.168;18.156;2023-07-20T09:26:48;100397.92;;;21.74;49.53
76553;BME280;65395;53.168;18.156;2023-07-20T09:29:18;100405.14;;;21.98;48.67
76553;BME280;65395;53.168;18.156;2023-07-20T09:31:59;100401.95;;;22.08;48.41
76553;BME280;65395;53.168;18.156;2023-07-20T09:34:28;100408.67;;;21.98;46.87
76553;BME280;65395;53.168;18.156;2023-07-20T09:36:58;100406.92;;;21.75;46.84
76553;BME280;65395;53.168;18.156;2023-07-20T09:39:25;100412.09;;;21.54;47.09
76553;BME280;65395;53.168;18.156;2023-07-20T09:41:52;100406.95;;;21.31;47.41
76553;BME280;65395;53.168;18.156;2023-07-20T09:44:19;100402.46;;;21.06;48.23
76553;BME280;65395;53.168;18.156;2023-07-20T09:46:48;100396.36;;;20.89;48.85
76553;BME280;65395;53.168;18.156;2023-07-20T09:49:17;100400.60;;;20.86;49.38
76553;BME280;65395;53.168;18.156;2023-07-20T09:51:45;100399.11;;;20.90;49.40
76553;BME280;65395;53.168;18.156;2023-07-20T09:54:13;100401.80;;;20.98;49.28
76553;BME280;65395;53.168;18.156;2023-07-20T09:56:40;100385.30;;;21.11;49.17
76553;BME280;65395;53.168;18.156;2023-07-20T09:59:08;100388.10;;;21.30;48.09
76553;BME280;65395;53.168;18.156;2023-07-20T10:01:37;100387.90;;;21.44;47.51
76553;BME280;65395;53.168;18.156;2023-07-20T10:04:08;100388.52;;;21.56;47.00
76553;BME280;65395;53.168;18.156;2023-07-20T10:06:40;100384.39;;;21.56;46.44
76553;BME280;65395;53.168;18.156;2023-07-20T10:09:10;100380.00;;;21.56;46.70
76553;BME280;65395;53.168;18.156;2023-07-20T10:11:43;100379.27;;;21.58;45.66
76553;BME280;65395;53.168;18.156;2023-07-20T10:14:12;100378.41;;;21.70;45.61
76553;BME280;65395;53.168;18.156;2023-07-20T10:16:43;100371.89;;;21.95;45.73
76553;BME280;65395;53.168;18.156;2023-07-20T10:19:23;100380.22;;;22.14;45.11
76553;BME280;65395;53.168;18.156;2023-07-20T10:21:57;100378.91;;;22.28;44.45
76553;BME280;65395;53.168;18.156;2023-07-20T10:24:27;100378.70;;;22.49;44.72
76553;BME280;65395;53.168;18.156;2023-07-20T10:26:55;100371.77;;;22.62;44.29
76553;BME280;65395;53.168;18.156;2023-07-20T10:29:22;100374.94;;;22.72;43.97
76553;BME280;65395;53.168;18.156;2023-07-20T10:31:51;100377.52;;;22.78;43.55
76553;BME280;65395;53.168;18.156;2023-07-20T10:34:18;100372.79;;;22.83;43.55
76553;BME280;65395;53.168;18.156;2023-07-20T10:36:45;100374.70;;;22.94;42.75
76553;BME280;65395;53.168;18.156;2023-07-20T10:39:23;100372.34;;;22.95;42.53
76553;BME280;65395;53.168;18.156;2023-07-20T10:41:59;100369.25;;;22.94;42.80
76553;BME280;65395;53.168;18.156;2023-07-20T10:44:27;100372.65;;;22.96;41.98
76553;BME280;65395;53.168;18.156;2023-07-20T10:47:02;100370.06;;;22.88;41.78
76553;BME280;65395;53.168;18.156;2023-07-20T10:49:34;100370.77;;;22.80;41.68
76553;BME280;65395;53.168;18.156;2023-07-20T10:52:05;100368.25;;;22.71;42.42
76553;BME280;65395;53.168;18.156;2023-07-20T10:54:34;100367.38;;;22.68;42.36
76553;BME280;65395;53.168;18.156;2023-07-20T10:59:47;100370.39;;;22.80;42.64
76553;BME280;65395;53.168;18.156;2023-07-20T11:02:18;100375.11;;;22.85;42.53
76553;BME280;65395;53.168;18.156;2023-07-20T11:04:47;100374.05;;;22.87;42.79
76553;BME280;65395;53.168;18.156;2023-07-20T11:07:16;100369.97;;;22.87;42.39
76553;BME280;65395;53.168;18.156;2023-07-20T11:09:43;100359.95;;;22.94;42.87
76553;BME280;65395;53.168;18.156;2023-07-20T11:12:13;100363.64;;;23.19;42.82
76553;BME280;65395;53.168;18.156;2023-07-20T11:14:43;100354.66;;;23.45;42.23
76553;BME280;65395;53.168;18.156;2023-07-20T11:17:12;100362.39;;;23.78;41.72
76553;BME280;65395;53.168;18.156;2023-07-20T11:19:40;100356.27;;;23.90;40.66
76553;BME280;65395;53.168;18.156;2023-07-20T11:22:07;100365.65;;;23.87;40.22
76553;BME280;65395;53.168;18.156;2023-07-20T11:24:34;100365.69;;;23.77;40.40
76553;BME280;65395;53.168;18.156;2023-07-20T11:27:01;100361.43;;;23.67;40.58
76553;BME280;65395;53.168;18.156;2023-07-20T11:29:28;100365.97;;;23.69;40.51
76553;BME280;65395;53.168;18.156;2023-07-20T11:31:56;100359.96;;;23.65;40.02
76553;BME280;65395;53.168;18.156;2023-07-20T11:34:23;100357.13;;;23.71;40.53
76553;BME280;65395;53.168;18.156;2023-07-20T11:36:51;100350.79;;;23.87;39.98
76553;BME280;65395;53.168;18.156;2023-07-20T11:39:21;100346.95;;;23.86;40.28
76553;BME280;65395;53.168;18.156;2023-07-20T11:41:49;100356.48;;;23.87;40.29
76553;BME280;65395;53.168;18.156;2023-07-20T11:44:19;100359.42;;;23.95;39.77
76553;BME280;65395;53.168;18.156;2023-07-20T11:46:47;100358.13;;;24.01;40.02
76553;BME280;65395;53.168;18.156;2023-07-20T11:49:13;100416.11;;;23.72;42.14
76553;BME280;65395;53.168;18.156;2023-07-20T11:51:40;100408.13;;;22.43;47.91
76553;BME280;65395;53.168;18.156;2023-07-20T11:54:08;100422.50;;;20.97;52.87
76553;BME280;65395;53.168;18.156;2023-07-20T11:56:36;100438.98;;;19.81;56.23
76553;BME280;65395;53.168;18.156;2023-07-20T11:59:03;100449.40;;;18.89;59.60
76553;BME280;65395;53.168;18.156;2023-07-20T12:01:30;100459.94;;;18.15;62.97
76553;BME280;65395;53.168;18.156;2023-07-20T12:03:59;100460.47;;;17.42;67.56
76553;BME280;65395;53.168;18.156;2023-07-20T12:06:29;100472.00;;;16.53;73.63
76553;BME280;65395;53.168;18.156;2023-07-20T12:08:57;100474.34;;;15.79;75.39
76553;BME280;65395;53.168;18.156;2023-07-20T12:11:35;100468.29;;;15.26;77.02
76553;BME280;65395;53.168;18.156;2023-07-20T12:14:03;100470.02;;;14.94;78.30
76553;BME280;65395;53.168;18.156;2023-07-20T12:16:31;100472.80;;;14.77;79.12
76553;BME280;65395;53.168;18.156;2023-07-20T12:19:02;100465.05;;;14.73;80.67
76553;BME280;65395;53.168;18.156;2023-07-20T12:21:31;100456.54;;;14.76;82.18
76553;BME280;65395;53.168;18.156;2023-07-20T12:23:58;100451.89;;;14.88;82.76
76553;BME280;65395;53.168;18.156;2023-07-20T12:26:26;100450.89;;;15.03;83.02
76553;BME280;65395;53.168;18.156;2023-07-20T12:28:53;100449.33;;;15.17;83.30
76553;BME280;65395;53.168;18.156;2023-07-20T12:31:19;100447.63;;;15.38;83.64
76553;BME280;65395;53.168;18.156;2023-07-20T12:33:48;100446.63;;;15.58;83.58
76553;BME280;65395;53.168;18.156;2023-07-20T12:36:15;100452.44;;;15.90;84.57
76553;BME280;65395;53.168;18.156;2023-07-20T12:38:42;100448.45;;;16.32;84.33
76553;BME280;65395;53.168;18.156;2023-07-20T12:41:10;100442.91;;;16.76;84.06
76553;BME280;65395;53.168;18.156;2023-07-20T12:43:41;100438.08;;;17.10;84.06
76553;BME280;65395;53.168;18.156;2023-07-20T12:46:09;100436.33;;;17.12;81.97
76553;BME280;65395;53.168;18.156;2023-07-20T12:48:36;100435.96;;;17.01;81.44
76553;BME280;65395;53.168;18.156;2023-07-20T12:51:04;100438.48;;;17.02;81.77
76553;BME280;65395;53.168;18.156;2023-07-20T12:53:31;100433.33;;;17.07;81.61
76553;BME280;65395;53.168;18.156;2023-07-20T12:55:59;100433.10;;;17.14;81.09